createdAt,value
2019-01-09T00:00:45.724Z,101369.94
2019-01-09T00:03:16.728Z,101363.78
2019-01-09T00:05:47.358Z,101356.48
2019-01-09T00:08:20.093Z,101360.55
2019-01-09T00:10:52.464Z,101364.86
2019-01-09T00:13:22.877Z,101363.50
2019-01-09T00:15:57.096Z,101360.84
2019-01-09T00:18:29.519Z,101362.50
2019-01-09T00:20:59.870Z,101338.63
2019-01-09T00:23:30.395Z,101321.84
2019-01-09T00:26:00.774Z,101329.16
2019-01-09T00:28:34.037Z,101327.98
2019-01-09T00:31:04.342Z,101335.37
2019-01-09T00:33:39.151Z,101332.16
2019-01-09T00:36:09.834Z,101330.83
2019-01-09T00:38:41.751Z,101343.50
2019-01-09T00:41:12.016Z,101333.74
2019-01-09T00:43:44.301Z,101329.04
2019-01-09T00:46:14.595Z,101331.77
2019-01-09T00:48:45.908Z,101334.60
2019-01-09T00:51:16.893Z,101331.17
2019-01-09T00:53:47.302Z,101331.92
2019-01-09T00:56:23.089Z,101336.73
2019-01-09T00:58:55.847Z,101331.87
2019-01-09T01:01:27.113Z,101343.98
2019-01-09T01:04:23.838Z,101338.13
2019-01-09T01:07:47.843Z,101332.88
2019-01-09T01:11:14.546Z,101325.34
2019-01-09T01:14:15.610Z,101341.33
2019-01-09T01:17:27.242Z,101341.33
2019-01-09T01:20:36.679Z,101346.38
2019-01-09T01:23:43.276Z,101346.63
2019-01-09T01:26:37.027Z,101346.40
2019-01-09T01:29:43.832Z,101358.95
2019-01-09T01:32:50.176Z,101361.59
2019-01-09T01:36:10.791Z,101362.33
2019-01-09T01:39:07.440Z,101369.08
2019-01-09T01:42:24.434Z,101364.61
2019-01-09T01:45:24.111Z,101359.42
2019-01-09T01:48:31.821Z,101347.42
2019-01-09T01:51:30.236Z,101350.87
2019-01-09T01:54:47.328Z,101350.87
2019-01-09T01:57:47.938Z,101346.95
2019-01-09T02:00:55.187Z,101350.95
2019-01-09T02:04:12.953Z,101355.08
2019-01-09T02:07:09.886Z,101345.03
2019-01-09T02:10:07.990Z,101355.55
2019-01-09T02:13:02.194Z,101363.60
2019-01-09T02:16:13.179Z,101368.52
2019-01-09T02:18:52.937Z,101373.88
2019-01-09T02:22:22.724Z,101379.47
2019-01-09T02:25:25.948Z,101383.84
2019-01-09T02:28:24.994Z,101394.21
2019-01-09T02:31:30.866Z,101401.34
2019-01-09T02:34:01.166Z,101393.24
2019-01-09T02:36:35.588Z,101397.33
2019-01-09T02:39:06.237Z,101405.88
2019-01-09T02:41:36.594Z,101399.55
2019-01-09T02:44:10.032Z,101390.94
2019-01-09T02:46:41.474Z,101393.00
2019-01-09T02:49:16.891Z,101399.42
2019-01-09T02:51:47.407Z,101401.08
2019-01-09T02:54:17.729Z,101401.08
2019-01-09T02:56:48.363Z,101399.55
2019-01-09T02:59:18.664Z,101393.00
2019-01-09T03:01:54.040Z,101401.91
2019-01-09T03:04:24.416Z,101403.77
2019-01-09T03:07:00.484Z,101401.07
2019-01-09T03:09:30.587Z,101394.31
2019-01-09T03:12:04.436Z,101401.11
2019-01-09T03:14:36.438Z,101411.64
2019-01-09T03:17:07.974Z,101404.98
2019-01-09T03:19:38.508Z,101404.98
2019-01-09T03:22:09.265Z,101411.31
2019-01-09T03:24:40.937Z,101413.69
2019-01-09T03:27:11.918Z,101412.38
2019-01-09T03:29:46.996Z,101406.17
2019-01-09T03:32:18.164Z,101410.61
2019-01-09T03:34:48.628Z,101401.62
2019-01-09T03:37:20.162Z,101403.43
2019-01-09T03:39:50.831Z,101407.98
2019-01-09T03:42:21.139Z,101399.91
2019-01-09T03:44:51.424Z,101400.54
2019-01-09T03:47:28.745Z,101400.83
2019-01-09T03:49:59.154Z,101401.64
2019-01-09T03:52:29.924Z,101392.97
2019-01-09T03:55:00.282Z,101390.78
2019-01-09T03:57:30.580Z,101388.69
2019-01-09T04:00:04.425Z,101372.70
2019-01-09T04:02:34.795Z,101385.81
2019-01-09T04:05:08.358Z,101390.75
2019-01-09T04:07:38.870Z,101384.94
2019-01-09T04:10:09.303Z,101392.64
2019-01-09T04:12:39.626Z,101386.34
2019-01-09T04:15:10.745Z,101386.95
2019-01-09T04:17:43.065Z,101391.25
2019-01-09T04:20:13.669Z,101390.20
2019-01-09T04:22:44.176Z,101395.52
2019-01-09T04:25:18.279Z,101390.98
2019-01-09T04:27:48.586Z,101393.45
2019-01-09T04:30:20.515Z,101389.56
2019-01-09T04:32:50.845Z,101393.87
2019-01-09T04:35:21.283Z,101387.20
2019-01-09T04:37:51.628Z,101391.11
2019-01-09T04:40:23.276Z,101391.49
2019-01-09T04:42:53.562Z,101392.16
2019-01-09T04:45:24.702Z,101388.97
2019-01-09T04:47:55.327Z,101395.00
2019-01-09T04:50:27.313Z,101402.38
2019-01-09T04:52:59.773Z,101397.43
2019-01-09T04:55:30.530Z,101398.30
2019-01-09T04:58:00.898Z,101395.12
2019-01-09T05:00:33.014Z,101394.48
2019-01-09T05:03:03.495Z,101394.24
2019-01-09T05:05:34.524Z,101393.08
2019-01-09T05:08:05.113Z,101392.23
2019-01-09T05:10:38.891Z,101398.42
2019-01-09T05:13:09.565Z,101398.42
2019-01-09T05:15:45.151Z,101398.13
2019-01-09T05:18:15.703Z,101409.08
2019-01-09T05:20:48.035Z,101406.89
2019-01-09T05:23:18.637Z,101402.67
2019-01-09T05:25:51.020Z,101407.81
2019-01-09T05:28:21.394Z,101403.16
2019-01-09T05:30:53.188Z,101407.95
2019-01-09T05:33:23.743Z,101404.38
2019-01-09T05:35:54.067Z,101405.49
2019-01-09T05:38:25.917Z,101415.23
2019-01-09T05:40:56.365Z,101413.22
2019-01-09T05:43:26.843Z,101402.30
2019-01-09T05:45:57.133Z,101417.45
2019-01-09T05:48:27.885Z,101409.89
2019-01-09T05:50:58.519Z,101414.13
2019-01-09T05:53:30.300Z,101414.64
2019-01-09T05:56:01.966Z,101411.73
2019-01-09T05:58:32.312Z,101411.78
2019-01-09T06:01:05.881Z,101408.03
2019-01-09T06:03:37.257Z,101411.50
2019-01-09T06:06:07.661Z,101405.12
2019-01-09T06:08:38.233Z,101413.88
2019-01-09T06:11:08.734Z,101411.82
2019-01-09T06:13:39.886Z,101416.03
2019-01-09T06:16:11.697Z,101413.27
2019-01-09T06:18:45.696Z,101415.23
2019-01-09T06:21:16.025Z,101419.16
2019-01-09T06:23:49.099Z,101424.53
2019-01-09T06:26:19.394Z,101415.84
2019-01-09T06:28:50.868Z,101427.28
2019-01-09T06:31:21.115Z,101437.47
2019-01-09T06:33:53.088Z,101458.23
2019-01-09T06:36:25.353Z,101436.77
2019-01-09T06:38:57.250Z,101440.80
2019-01-09T06:41:27.735Z,101433.16
2019-01-09T06:44:00.064Z,101428.20
2019-01-09T06:46:32.737Z,101432.56
2019-01-09T06:49:04.754Z,101430.20
2019-01-09T06:51:35.566Z,101432.88
2019-01-09T06:54:07.378Z,101439.93
2019-01-09T06:56:37.870Z,101434.48
2019-01-09T06:59:08.278Z,101442.35
2019-01-09T07:01:38.633Z,101440.73
2019-01-09T07:04:09.034Z,101449.11
2019-01-09T07:06:39.345Z,101445.75
2019-01-09T07:09:09.818Z,101450.73
2019-01-09T07:11:44.311Z,101454.37
2019-01-09T07:14:14.798Z,101457.42
2019-01-09T07:16:47.424Z,101470.39
2019-01-09T07:19:17.722Z,101470.52
2019-01-09T07:21:50.885Z,101472.56
2019-01-09T07:24:21.183Z,101472.56
2019-01-09T07:26:56.359Z,101477.35
2019-01-09T07:29:26.716Z,101472.97
2019-01-09T07:31:57.304Z,101486.66
2019-01-09T07:34:27.635Z,101473.77
2019-01-09T07:36:58.023Z,101477.34
2019-01-09T07:39:29.865Z,101485.31
2019-01-09T07:42:00.489Z,101484.80
2019-01-09T07:44:37.439Z,101494.91
2019-01-09T07:47:07.857Z,101486.48
2019-01-09T07:49:38.215Z,101493.80
2019-01-09T07:52:08.764Z,101494.45
2019-01-09T07:54:39.088Z,101497.36
2019-01-09T07:57:12.467Z,101501.83
2019-01-09T07:59:45.741Z,101505.53
2019-01-09T08:02:17.831Z,101498.04
2019-01-09T08:04:48.141Z,101501.02
2019-01-09T08:07:19.858Z,101509.38
2019-01-09T08:09:50.128Z,101521.81
2019-01-09T08:12:21.858Z,101514.30
2019-01-09T08:14:52.556Z,101514.30
2019-01-09T08:17:24.944Z,101517.95
2019-01-09T08:19:55.581Z,101522.92
2019-01-09T08:22:27.201Z,101534.47
2019-01-09T08:24:57.481Z,101528.73
2019-01-09T08:27:28.987Z,101534.16
2019-01-09T08:29:59.658Z,101542.52
2019-01-09T08:32:29.963Z,101536.47
2019-01-09T08:35:00.324Z,101541.76
2019-01-09T08:37:34.498Z,101544.38
2019-01-09T08:40:06.176Z,101548.11
2019-01-09T08:42:46.874Z,101556.05
2019-01-09T08:45:17.227Z,101564.91
2019-01-09T08:47:48.898Z,101559.33
2019-01-09T08:50:19.242Z,101564.33
2019-01-09T08:52:54.759Z,101577.58
2019-01-09T08:55:26.743Z,101574.97
2019-01-09T08:58:00.425Z,101580.38
2019-01-09T09:00:30.984Z,101583.81
2019-01-09T09:03:01.936Z,101582.89
2019-01-09T09:05:32.254Z,101584.43
2019-01-09T09:08:11.995Z,101591.84
2019-01-09T09:10:36.139Z,101592.50
2019-01-09T09:13:07.928Z,101589.73
2019-01-09T09:15:38.560Z,101586.59
2019-01-09T09:18:10.198Z,101581.47
2019-01-09T09:20:40.891Z,101595.72
2019-01-09T09:23:13.375Z,101591.86
2019-01-09T09:25:47.719Z,101595.69
2019-01-09T09:28:19.266Z,101589.88
2019-01-09T09:30:49.814Z,101597.80
2019-01-09T09:33:20.313Z,101602.70
2019-01-09T09:35:50.851Z,101596.73
2019-01-09T09:38:24.894Z,101608.23
2019-01-09T09:40:55.249Z,101608.57
2019-01-09T09:43:27.804Z,101613.98
2019-01-09T09:45:58.392Z,101616.56
2019-01-09T09:48:29.999Z,101615.38
2019-01-09T09:51:02.244Z,101606.75
2019-01-09T09:53:32.632Z,101606.63
2019-01-09T09:56:03.220Z,101607.37
2019-01-09T09:58:35.723Z,101614.13
2019-01-09T10:01:06.307Z,101610.31
2019-01-09T10:03:38.475Z,101620.80
2019-01-09T10:06:09.127Z,101619.92
2019-01-09T10:08:39.440Z,101632.03
2019-01-09T10:11:11.968Z,101629.42
2019-01-09T10:13:42.381Z,101622.41
2019-01-09T10:16:12.965Z,101620.42
2019-01-09T10:18:43.378Z,101617.76
2019-01-09T10:21:13.948Z,101624.87
2019-01-09T10:23:44.283Z,101627.52
2019-01-09T10:26:14.888Z,101622.36
2019-01-09T10:28:48.002Z,101640.53
2019-01-09T10:31:18.277Z,101635.25
2019-01-09T10:33:48.795Z,101630.78
2019-01-09T10:36:20.738Z,101638.87
2019-01-09T10:38:52.205Z,101620.88
2019-01-09T10:41:23.250Z,101626.63
2019-01-09T10:43:53.593Z,101631.20
2019-01-09T10:46:25.842Z,101634.44
2019-01-09T10:48:56.162Z,101614.47
2019-01-09T10:51:26.785Z,101619.20
2019-01-09T10:53:57.069Z,101619.20
2019-01-09T10:56:31.668Z,101625.16
2019-01-09T10:59:03.929Z,101616.68
2019-01-09T11:01:37.379Z,101622.90
2019-01-09T11:04:09.526Z,101607.12
2019-01-09T11:06:39.882Z,101621.27
2019-01-09T11:09:10.380Z,101612.29
2019-01-09T11:11:40.730Z,101607.70
2019-01-09T11:14:11.387Z,101607.51
2019-01-09T11:16:41.880Z,101602.62
2019-01-09T11:19:13.668Z,101610.24
2019-01-09T11:21:44.235Z,101610.05
2019-01-09T11:24:14.841Z,101605.20
2019-01-09T11:26:45.282Z,101614.98
2019-01-09T11:29:15.853Z,101604.47
2019-01-09T11:31:46.291Z,101604.47
2019-01-09T11:34:17.074Z,101592.72
2019-01-09T11:36:47.663Z,101598.00
2019-01-09T11:39:18.474Z,101596.61
2019-01-09T11:41:49.211Z,101597.77
2019-01-09T11:44:21.249Z,101599.48
2019-01-09T11:46:53.417Z,101594.19
2019-01-09T11:49:23.940Z,101588.17
2019-01-09T11:51:54.263Z,101586.55
2019-01-09T11:54:24.838Z,101595.23
2019-01-09T11:56:55.193Z,101584.41
2019-01-09T11:59:25.660Z,101578.59
2019-01-09T12:01:56.485Z,101582.36
2019-01-09T12:04:27.069Z,101585.17
2019-01-09T12:06:57.469Z,101583.61
2019-01-09T12:09:28.074Z,101591.61
2019-01-09T12:11:58.670Z,101576.95
2019-01-09T12:14:30.322Z,101585.80
2019-01-09T12:17:02.157Z,101582.16
2019-01-09T12:19:32.451Z,101589.64
2019-01-09T12:22:03.098Z,101591.41
2019-01-09T12:24:34.523Z,101596.50
2019-01-09T12:27:05.327Z,101595.80
2019-01-09T12:29:48.302Z,101591.66
2019-01-09T12:32:19.050Z,101588.92
2019-01-09T12:34:49.451Z,101593.94
2019-01-09T12:37:20.004Z,101592.55
2019-01-09T12:39:50.304Z,101593.26
2019-01-09T12:42:21.075Z,101600.51
2019-01-09T12:44:51.650Z,101595.82
2019-01-09T12:47:22.063Z,101601.40
2019-01-09T12:49:52.386Z,101591.55
2019-01-09T12:52:23.100Z,101595.33
2019-01-09T12:54:53.596Z,101586.95
2019-01-09T12:57:24.643Z,101600.91
2019-01-09T13:00:11.750Z,101603.09
2019-01-09T13:02:42.386Z,101599.03
2019-01-09T13:05:12.985Z,101587.72
2019-01-09T13:07:44.571Z,101597.70
2019-01-09T13:10:14.858Z,101598.11
2019-01-09T13:12:45.600Z,101595.27
2019-01-09T13:15:15.941Z,101602.42
2019-01-09T13:17:46.779Z,101602.01
2019-01-09T13:20:17.295Z,101607.80
2019-01-09T13:22:49.089Z,101594.31
2019-01-09T13:25:19.416Z,101606.73
2019-01-09T13:27:50.625Z,101613.09
2019-01-09T13:30:23.080Z,101616.14
2019-01-09T13:32:54.863Z,101616.41
2019-01-09T13:35:25.613Z,101618.05
2019-01-09T13:37:57.288Z,101614.39
2019-01-09T13:40:27.644Z,101615.58
2019-01-09T13:42:59.496Z,101624.16
2019-01-09T13:45:29.803Z,101618.78
2019-01-09T13:48:00.332Z,101631.20
2019-01-09T13:50:31.599Z,101631.66
2019-01-09T13:53:03.892Z,101626.16
2019-01-09T13:55:34.519Z,101643.06
2019-01-09T13:58:04.989Z,101635.84
2019-01-09T14:00:36.992Z,101637.36
2019-01-09T14:03:07.374Z,101642.52
2019-01-09T14:05:37.695Z,101641.98
2019-01-09T14:08:08.126Z,101657.08
2019-01-09T14:10:40.350Z,101654.34
2019-01-09T14:13:10.797Z,101649.38
2019-01-09T14:15:41.414Z,101659.17
2019-01-09T14:18:11.777Z,101661.48
2019-01-09T14:20:44.055Z,101666.10
2019-01-09T14:23:15.657Z,101668.46
2019-01-09T14:25:46.498Z,101661.11
2019-01-09T14:28:18.928Z,101663.16
2019-01-09T14:30:49.560Z,101659.55
2019-01-09T14:33:19.936Z,101657.26
2019-01-09T14:35:53.432Z,101671.13
2019-01-09T14:38:23.757Z,101657.00
2019-01-09T14:40:55.294Z,101669.34
2019-01-09T14:43:25.689Z,101670.61
2019-01-09T14:45:57.789Z,101677.19
2019-01-09T14:48:29.451Z,101700.65
2019-01-09T14:50:59.909Z,101693.91
2019-01-09T14:53:30.833Z,101691.75
2019-01-09T14:56:02.825Z,101697.33
2019-01-09T14:58:33.715Z,101697.05
2019-01-09T15:01:04.317Z,101689.52
2019-01-09T15:03:35.227Z,101708.79
2019-01-09T15:06:06.200Z,101712.60
2019-01-09T15:08:37.086Z,101715.70
2019-01-09T15:11:07.666Z,101715.70
2019-01-09T15:13:38.437Z,101714.22
2019-01-09T15:16:08.800Z,101724.63
2019-01-09T15:18:42.753Z,101726.45
2019-01-09T15:21:13.130Z,101730.23
2019-01-09T15:23:45.589Z,101739.45
2019-01-09T15:26:15.954Z,101732.86
2019-01-09T15:28:48.636Z,101737.72
2019-01-09T15:31:18.920Z,101743.09
2019-01-09T15:33:52.635Z,101751.24
2019-01-09T15:36:23.114Z,101748.84
2019-01-09T15:38:54.169Z,101750.57
2019-01-09T15:41:24.690Z,101756.19
2019-01-09T15:43:55.733Z,101747.53
2019-01-09T15:46:26.270Z,101747.53
2019-01-09T15:48:56.764Z,101755.77
2019-01-09T15:51:27.152Z,101760.98
2019-01-09T15:53:57.616Z,101761.05
2019-01-09T15:56:28.283Z,101759.22
2019-01-09T15:58:59.893Z,101765.63
2019-01-09T16:01:30.375Z,101764.12
2019-01-09T16:04:07.928Z,101767.95
2019-01-09T16:06:38.640Z,101775.63
2019-01-09T16:09:10.577Z,101770.27
2019-01-09T16:11:41.270Z,101769.28
2019-01-09T16:14:11.943Z,101769.28
2019-01-09T16:16:42.316Z,101769.19
2019-01-09T16:19:14.180Z,101778.77
2019-01-09T16:21:47.070Z,101773.02
2019-01-09T16:24:18.984Z,101776.13
2019-01-09T16:26:49.647Z,101772.70
2019-01-09T16:29:20.010Z,101772.70
2019-01-09T16:31:50.357Z,101781.92
2019-01-09T16:34:20.688Z,101782.91
2019-01-09T16:36:51.594Z,101783.49
2019-01-09T16:39:30.540Z,101787.88
2019-01-09T16:41:56.962Z,101788.47
2019-01-09T16:44:27.305Z,101796.12
2019-01-09T16:46:59.670Z,101797.61
2019-01-09T16:49:30.157Z,101792.92
2019-01-09T16:52:01.311Z,101795.30
2019-01-09T16:54:31.958Z,101794.42
2019-01-09T16:57:05.449Z,101799.56
2019-01-09T16:59:35.973Z,101799.56
2019-01-09T17:02:09.516Z,101814.72
2019-01-09T17:04:41.704Z,101810.45
2019-01-09T17:07:12.255Z,101815.92
2019-01-09T17:09:49.295Z,101819.28
2019-01-09T17:12:21.512Z,101815.88
2019-01-09T17:14:51.949Z,101824.02
2019-01-09T17:17:22.379Z,101826.45
2019-01-09T17:19:54.079Z,101813.09
2019-01-09T17:22:25.560Z,101833.08
2019-01-09T17:24:56.009Z,101836.80
2019-01-09T17:27:27.728Z,101832.14
2019-01-09T17:29:58.182Z,101835.66
2019-01-09T17:32:28.538Z,101845.61
2019-01-09T17:34:59.535Z,101849.70
2019-01-09T17:37:29.893Z,101849.64
2019-01-09T17:40:00.490Z,101853.16
2019-01-09T17:42:31.011Z,101864.47
2019-01-09T17:45:05.685Z,101858.33
2019-01-09T17:47:35.791Z,101867.00
2019-01-09T17:50:13.156Z,101855.78
2019-01-09T17:52:44.543Z,101859.87
2019-01-09T17:55:15.315Z,101859.95
2019-01-09T17:58:01.227Z,101861.08
2019-01-09T18:00:25.101Z,101867.92
2019-01-09T18:02:56.770Z,101867.92
2019-01-09T18:05:27.159Z,101879.92
2019-01-09T18:07:58.167Z,101881.47
2019-01-09T18:10:28.980Z,101888.04
2019-01-09T18:12:59.975Z,101880.41
2019-01-09T18:15:31.481Z,101892.75
2019-01-09T18:18:01.881Z,101887.44
2019-01-09T18:20:32.722Z,101897.25
2019-01-09T18:23:03.064Z,101895.00
2019-01-09T18:25:34.057Z,101895.98
2019-01-09T18:28:04.495Z,101902.05
2019-01-09T18:31:08.611Z,101911.89
2019-01-09T18:33:46.837Z,101903.31
2019-01-09T18:36:44.746Z,101905.01
2019-01-09T18:39:56.213Z,101910.06
2019-01-09T18:43:05.737Z,101909.59
2019-01-09T18:46:08.046Z,101922.06
2019-01-09T18:49:19.464Z,101922.06
2019-01-09T18:52:52.369Z,101922.31
2019-01-09T18:55:24.646Z,101928.41
2019-01-09T18:57:57.636Z,101936.14
2019-01-09T19:00:28.155Z,101947.30
2019-01-09T19:02:58.937Z,101950.41
2019-01-09T19:05:33.754Z,101947.50
2019-01-09T19:08:04.802Z,101950.03
2019-01-09T19:10:36.629Z,101963.91
2019-01-09T19:13:06.876Z,101949.77
2019-01-09T19:15:37.590Z,101962.64
2019-01-09T19:18:08.321Z,101959.35
2019-01-09T19:20:40.124Z,101959.63
2019-01-09T19:23:11.346Z,101960.23
2019-01-09T19:25:41.979Z,101968.25
2019-01-09T19:28:14.190Z,101961.41
2019-01-09T19:30:45.113Z,101966.98
2019-01-09T19:33:16.766Z,101969.06
2019-01-09T19:35:48.705Z,101973.61
2019-01-09T19:38:19.647Z,101977.06
2019-01-09T19:40:51.674Z,101967.56
2019-01-09T19:43:22.431Z,101968.58
2019-01-09T19:45:52.855Z,101973.50
2019-01-09T19:48:24.113Z,101976.55
2019-01-09T19:50:54.479Z,101977.45
2019-01-09T19:53:24.893Z,101988.32
2019-01-09T19:55:55.720Z,101985.41
2019-01-09T19:58:29.307Z,101991.37
2019-01-09T20:01:01.592Z,101991.37
2019-01-09T20:03:35.765Z,101989.08
2019-01-09T20:06:07.648Z,101994.66
2019-01-09T20:08:40.055Z,101998.95
2019-01-09T20:11:12.237Z,101997.59
2019-01-09T20:13:44.011Z,101998.50
2019-01-09T20:16:14.726Z,102002.67
2019-01-09T20:18:45.226Z,102005.63
2019-01-09T20:21:16.206Z,102010.96
2019-01-09T20:23:47.156Z,102003.37
2019-01-09T20:26:17.792Z,102020.46
2019-01-09T20:28:48.206Z,102021.59
2019-01-09T20:31:20.388Z,102020.05
2019-01-09T20:33:51.165Z,102023.38
2019-01-09T20:36:23.780Z,102025.90
2019-01-09T20:38:54.119Z,102022.98
2019-01-09T20:41:34.923Z,102031.11
2019-01-09T20:43:58.061Z,102039.32
2019-01-09T20:46:28.521Z,102043.39
2019-01-09T20:48:59.129Z,102048.95
2019-01-09T20:51:29.580Z,102049.70
2019-01-09T20:54:00.136Z,102048.17
2019-01-09T20:56:30.675Z,102052.38
2019-01-09T20:59:01.351Z,102061.08
2019-01-09T21:01:32.664Z,102062.09
2019-01-09T21:04:02.988Z,102064.99
2019-01-09T21:06:39.566Z,102061.61
2019-01-09T21:09:11.091Z,102066.89
2019-01-09T21:11:44.437Z,102063.84
2019-01-09T21:14:15.385Z,102068.64
2019-01-09T21:16:45.889Z,102070.42
2019-01-09T21:19:16.383Z,102075.07
2019-01-09T21:21:47.066Z,102076.33
2019-01-09T21:24:21.238Z,102075.92
2019-01-09T21:26:57.120Z,102075.92
2019-01-09T21:29:28.675Z,102081.97
2019-01-09T21:31:59.256Z,102076.91
2019-01-09T21:34:31.658Z,102076.38
2019-01-09T21:37:01.998Z,102073.05
2019-01-09T21:39:34.847Z,102070.45
2019-01-09T21:42:05.564Z,102074.00
2019-01-09T21:44:36.098Z,102070.70
2019-01-09T21:47:06.657Z,102069.19
2019-01-09T21:49:37.096Z,102071.16
2019-01-09T21:52:07.550Z,102080.70
2019-01-09T21:54:37.856Z,102082.56
2019-01-09T21:57:10.819Z,102086.12
2019-01-09T21:59:41.484Z,102088.84
2019-01-09T22:02:13.012Z,102102.68
2019-01-09T22:04:49.399Z,102106.71
2019-01-09T22:07:19.829Z,102105.14
2019-01-09T22:09:51.591Z,102106.28
2019-01-09T22:14:58.254Z,102112.61
2019-01-09T22:17:28.576Z,102117.09
2019-01-09T22:19:58.937Z,102122.70
2019-01-09T22:22:29.449Z,102123.92
2019-01-09T22:25:00.201Z,102119.95
2019-01-09T22:27:30.730Z,102129.42
2019-01-09T22:30:01.435Z,102134.75
2019-01-09T22:32:31.761Z,102134.75
2019-01-09T22:35:04.628Z,102137.71
2019-01-09T22:37:36.709Z,102137.71
2019-01-09T22:40:12.454Z,102144.20
2019-01-09T22:42:43.173Z,102140.87
2019-01-09T22:47:51.010Z,102138.32
2019-01-09T22:50:24.960Z,102142.09
2019-01-09T22:52:55.252Z,102152.41
2019-01-09T22:55:25.873Z,102143.94
2019-01-09T22:57:56.401Z,102143.94
2019-01-09T23:00:38.754Z,102152.16
2019-01-09T23:03:13.325Z,102140.74
2019-01-09T23:05:43.714Z,102146.27
2019-01-09T23:08:15.541Z,102153.36
2019-01-09T23:10:54.453Z,102155.50
2019-01-09T23:13:20.454Z,102165.09
2019-01-09T23:15:53.124Z,102158.00
2019-01-09T23:18:26.704Z,102154.03
2019-01-09T23:20:57.387Z,102152.77
2019-01-09T23:23:28.144Z,102158.25
2019-01-09T23:25:58.513Z,102164.54
2019-01-09T23:28:30.798Z,102169.57
2019-01-09T23:31:01.455Z,102166.76
2019-01-09T23:33:33.278Z,102168.69
2019-01-09T23:36:04.249Z,102170.70
2019-01-09T23:38:35.021Z,102170.91
2019-01-09T23:41:06.535Z,102172.45
2019-01-09T23:43:36.884Z,102179.11
2019-01-09T23:46:08.721Z,102186.16
2019-01-09T23:48:39.024Z,102187.06
2019-01-09T23:51:09.470Z,102195.70
2019-01-09T23:53:39.959Z,102187.26
2019-01-09T23:56:11.504Z,102185.57
2019-01-09T23:58:41.876Z,102194.80
